createdAt,value
2019-05-11T00:00:39.629Z,1.30
2019-05-11T00:03:08.061Z,1.32
2019-05-11T00:05:36.790Z,1.50
2019-05-11T00:08:05.286Z,1.15
2019-05-11T00:10:33.712Z,1.17
2019-05-11T00:13:02.256Z,1.10
2019-05-11T00:15:31.021Z,1.30
2019-05-11T00:17:59.537Z,0.85
2019-05-11T00:20:28.293Z,1.00
2019-05-11T00:22:56.719Z,0.90
2019-05-11T00:25:25.455Z,1.05
2019-05-11T00:27:53.890Z,1.12
2019-05-11T00:30:22.393Z,1.02
2019-05-11T00:32:50.826Z,1.17
2019-05-11T00:35:19.262Z,0.78
2019-05-11T00:37:47.685Z,0.62
2019-05-11T00:40:16.658Z,0.98
2019-05-11T00:42:45.106Z,0.88
2019-05-11T00:45:14.123Z,0.90
2019-05-11T00:47:42.547Z,1.05
2019-05-11T00:50:11.750Z,0.85
2019-05-11T00:52:40.172Z,0.70
2019-05-11T00:55:08.751Z,0.60
2019-05-11T00:57:37.176Z,0.70
2019-05-11T01:00:08.021Z,0.60
2019-05-11T01:02:36.440Z,0.70
2019-05-11T01:05:06.314Z,0.70
2019-05-11T01:07:34.781Z,0.60
2019-05-11T01:10:04.362Z,0.80
2019-05-11T01:12:33.068Z,0.70
2019-05-11T01:15:01.507Z,0.90
2019-05-11T01:17:29.936Z,0.80
2019-05-11T01:19:59.335Z,1.07
2019-05-11T01:22:27.754Z,0.80
2019-05-11T01:24:56.191Z,0.80
2019-05-11T01:27:24.980Z,0.60
2019-05-11T01:29:53.401Z,0.70
2019-05-11T01:32:22.166Z,0.60
2019-05-11T01:34:50.937Z,0.60
2019-05-11T01:37:19.367Z,0.70
2019-05-11T01:39:47.788Z,0.80
2019-05-11T01:42:16.484Z,0.90
2019-05-11T01:44:44.908Z,0.70
2019-05-11T01:47:13.336Z,0.65
2019-05-11T01:49:42.165Z,0.70
2019-05-11T01:52:10.560Z,0.70
2019-05-11T01:54:38.944Z,0.70
2019-05-11T01:57:07.653Z,0.57
2019-05-11T01:59:36.042Z,0.60
2019-05-11T02:02:04.829Z,0.82
2019-05-11T02:04:33.256Z,0.70
2019-05-11T02:07:02.004Z,1.00
2019-05-11T02:09:30.368Z,0.70
2019-05-11T02:11:59.053Z,0.80
2019-05-11T02:14:27.748Z,0.70
2019-05-11T02:16:56.141Z,0.70
2019-05-11T02:19:24.775Z,0.88
2019-05-11T02:21:53.165Z,0.82
2019-05-11T02:24:21.803Z,0.72
2019-05-11T02:26:50.273Z,0.90
2019-05-11T02:29:18.936Z,0.82
2019-05-11T02:31:47.329Z,0.80
2019-05-11T02:34:15.728Z,0.60
2019-05-11T02:36:44.388Z,0.70
2019-05-11T02:39:12.778Z,0.90
2019-05-11T02:41:41.165Z,0.80
2019-05-11T02:44:09.619Z,0.82
2019-05-11T02:46:38.018Z,1.00
2019-05-11T02:49:06.694Z,0.90
2019-05-11T02:51:35.683Z,0.98
2019-05-11T02:54:04.507Z,0.70
2019-05-11T02:56:32.900Z,0.70
2019-05-11T02:59:01.285Z,0.90
2019-05-11T03:01:29.673Z,0.72
2019-05-11T03:03:58.411Z,0.80
2019-05-11T03:06:27.085Z,0.57
2019-05-11T03:08:55.788Z,0.80
2019-05-11T03:11:24.174Z,0.65
2019-05-11T03:13:52.840Z,0.70
2019-05-11T03:16:21.241Z,0.90
2019-05-11T03:18:49.620Z,0.60
2019-05-11T03:21:18.031Z,1.05
2019-05-11T03:23:46.399Z,1.17
2019-05-11T03:26:15.047Z,1.42
2019-05-11T03:28:43.450Z,1.20
2019-05-11T03:31:11.828Z,1.10
2019-05-11T03:33:40.257Z,1.20
2019-05-11T03:36:08.614Z,1.15
2019-05-11T03:38:37.353Z,1.15
2019-05-11T03:41:06.038Z,1.37
2019-05-11T03:43:34.529Z,1.10
2019-05-11T03:46:02.894Z,1.40
2019-05-11T03:48:31.585Z,1.12
2019-05-11T03:51:00.273Z,1.20
2019-05-11T03:53:28.670Z,1.42
2019-05-11T03:55:57.051Z,1.00
2019-05-11T03:58:26.791Z,1.30
2019-05-11T04:00:55.633Z,1.50
2019-05-11T04:03:24.314Z,1.62
2019-05-11T04:05:52.704Z,1.57
2019-05-11T04:08:21.102Z,1.40
2019-05-11T04:10:49.760Z,1.07
2019-05-11T04:13:18.158Z,1.27
2019-05-11T04:15:46.834Z,1.52
2019-05-11T04:18:15.236Z,1.12
2019-05-11T04:20:43.620Z,1.75
2019-05-11T04:23:12.024Z,1.67
2019-05-11T04:25:40.402Z,1.35
2019-05-11T04:28:08.792Z,1.02
2019-05-11T04:30:37.178Z,1.12
2019-05-11T04:33:05.595Z,1.00
2019-05-11T04:35:34.479Z,1.15
2019-05-11T04:38:02.887Z,1.40
2019-05-11T04:40:31.272Z,1.98
2019-05-11T04:42:59.685Z,1.60
2019-05-11T04:45:28.058Z,1.87
2019-05-11T04:47:56.449Z,2.00
2019-05-11T04:50:24.842Z,2.10
2019-05-11T04:52:53.223Z,2.30
2019-05-11T04:55:22.643Z,5.40
2019-05-11T04:57:51.030Z,2.30
2019-05-11T05:00:19.585Z,1.87
2019-05-11T05:02:47.972Z,2.47
2019-05-11T05:05:16.369Z,2.77
2019-05-11T05:07:49.376Z,2.58
2019-05-11T05:10:19.814Z,2.77
2019-05-11T05:12:50.431Z,2.85
2019-05-11T05:15:16.024Z,2.85
2019-05-11T05:17:44.417Z,3.27
2019-05-11T05:20:13.293Z,3.50
2019-05-11T05:22:41.815Z,3.92
2019-05-11T05:25:10.284Z,3.60
2019-05-11T05:27:38.670Z,2.70
2019-05-11T05:30:08.000Z,4.10
2019-05-11T05:32:36.523Z,6.33
2019-05-11T05:35:05.994Z,4.03
2019-05-11T05:37:34.378Z,3.10
2019-05-11T05:40:03.197Z,3.98
2019-05-11T05:42:31.625Z,4.00
2019-05-11T05:44:59.990Z,3.65
2019-05-11T05:47:28.374Z,2.60
2019-05-11T05:49:57.019Z,2.58
2019-05-11T05:52:25.727Z,2.72
2019-05-11T05:54:54.121Z,2.25
2019-05-11T05:57:22.505Z,2.33
2019-05-11T05:59:51.151Z,2.12
2019-05-11T06:02:19.548Z,2.80
2019-05-11T06:04:48.222Z,2.10
2019-05-11T06:07:16.915Z,2.22
2019-05-11T06:09:45.310Z,1.75
2019-05-11T06:12:13.972Z,1.42
2019-05-11T06:14:42.443Z,1.50
2019-05-11T06:17:10.873Z,1.50
2019-05-11T06:19:39.289Z,1.47
2019-05-11T06:22:07.687Z,1.75
2019-05-11T06:24:36.078Z,1.55
2019-05-11T06:27:04.585Z,1.70
2019-05-11T06:29:33.037Z,1.40
2019-05-11T06:32:01.511Z,1.25
2019-05-11T06:34:29.889Z,1.27
2019-05-11T06:36:58.287Z,1.30
2019-05-11T06:39:27.072Z,1.10
2019-05-11T06:41:55.509Z,1.00
2019-05-11T06:44:24.236Z,1.30
2019-05-11T06:46:52.633Z,1.00
2019-05-11T06:49:21.021Z,1.37
2019-05-11T06:51:49.689Z,1.30
2019-05-11T06:54:18.368Z,1.30
2019-05-11T06:56:46.766Z,1.20
2019-05-11T06:59:15.159Z,1.30
2019-05-11T07:01:51.210Z,1.20
2019-05-11T07:04:24.849Z,1.60
2019-05-11T07:06:57.743Z,1.70
2019-05-11T07:09:29.839Z,1.52
2019-05-11T07:11:59.646Z,1.50
2019-05-11T07:14:35.991Z,1.50
2019-05-11T07:17:07.952Z,1.50
2019-05-11T07:19:36.336Z,1.65
2019-05-11T07:22:09.050Z,1.70
2019-05-11T07:24:40.719Z,1.82
2019-05-11T07:27:15.598Z,1.98
2019-05-11T07:29:43.612Z,1.55
2019-05-11T07:32:22.101Z,1.77
2019-05-11T07:34:44.724Z,1.70
2019-05-11T07:37:28.367Z,1.67
2019-05-11T07:39:58.042Z,1.60
2019-05-11T07:42:28.569Z,1.82
2019-05-11T07:45:01.436Z,1.30
2019-05-11T07:47:42.014Z,1.40
2019-05-11T07:50:18.162Z,1.40
2019-05-11T07:52:58.688Z,1.42
2019-05-11T07:55:28.171Z,1.40
2019-05-11T07:58:00.885Z,1.62
2019-05-11T08:00:31.410Z,1.57
2019-05-11T08:03:00.806Z,1.30
2019-05-11T08:05:31.998Z,1.50
2019-05-11T08:08:17.908Z,1.30
2019-05-11T08:10:39.107Z,1.25
2019-05-11T08:13:10.103Z,1.22
2019-05-11T08:15:38.768Z,0.90
2019-05-11T08:18:18.927Z,1.10
2019-05-11T08:20:51.507Z,1.00
2019-05-11T08:23:22.466Z,0.90
2019-05-11T08:26:00.559Z,1.30
2019-05-11T08:28:33.358Z,1.10
2019-05-11T08:31:01.878Z,1.22
2019-05-11T08:33:30.288Z,1.00
2019-05-11T08:35:58.681Z,1.27
2019-05-11T08:38:28.503Z,1.20
2019-05-11T08:40:59.084Z,0.90
2019-05-11T08:43:38.917Z,0.80
2019-05-11T08:46:08.061Z,0.90
2019-05-11T08:48:38.748Z,0.70
2019-05-11T08:51:08.394Z,1.10
2019-05-11T08:53:38.749Z,1.10
2019-05-11T08:56:11.092Z,1.17
2019-05-11T08:58:37.997Z,1.20
2019-05-11T09:01:08.874Z,1.00
2019-05-11T09:03:38.716Z,1.05
2019-05-11T09:06:08.425Z,0.85
2019-05-11T09:08:38.799Z,1.10
2019-05-11T09:11:08.376Z,1.12
2019-05-11T09:13:39.234Z,1.10
2019-05-11T09:16:07.872Z,1.10
2019-05-11T09:18:38.485Z,1.50
2019-05-11T09:21:08.330Z,1.12
2019-05-11T09:23:39.927Z,1.20
2019-05-11T09:26:08.932Z,1.20
2019-05-11T09:28:38.463Z,1.15
2019-05-11T09:31:11.274Z,1.20
2019-05-11T09:33:39.755Z,1.00
2019-05-11T09:36:08.654Z,0.90
2019-05-11T09:38:38.361Z,1.10
2019-05-11T09:41:09.005Z,1.20
2019-05-11T09:43:37.708Z,0.98
2019-05-11T09:46:08.384Z,1.00
2019-05-11T09:48:37.881Z,1.10
2019-05-11T09:51:07.963Z,0.90
2019-05-11T09:53:38.678Z,0.95
2019-05-11T09:56:08.067Z,0.90
2019-05-11T09:58:38.721Z,0.90
2019-05-11T10:01:08.858Z,1.40
2019-05-11T10:03:38.696Z,1.10
2019-05-11T10:06:08.326Z,1.05
2019-05-11T10:08:38.111Z,1.00
2019-05-11T10:11:08.404Z,0.80
2019-05-11T10:13:38.506Z,1.00
2019-05-11T10:16:10.324Z,1.30
2019-05-11T10:18:38.582Z,1.10
2019-05-11T10:21:08.077Z,0.80
2019-05-11T10:23:38.274Z,1.15
2019-05-11T10:26:07.966Z,0.80
2019-05-11T10:28:38.784Z,1.27
2019-05-11T10:31:28.442Z,0.80
2019-05-11T10:33:58.067Z,0.90
2019-05-11T10:36:28.023Z,0.80
2019-05-11T10:38:58.660Z,0.88
2019-05-11T10:41:28.453Z,0.90
2019-05-11T10:43:58.030Z,0.90
2019-05-11T10:46:28.707Z,0.80
2019-05-11T10:48:58.640Z,0.88
2019-05-11T10:51:28.862Z,1.32
2019-05-11T10:53:57.843Z,0.82
2019-05-11T10:56:28.450Z,1.02
2019-05-11T10:58:58.623Z,1.00
2019-05-11T11:01:28.519Z,0.95
2019-05-11T11:03:58.699Z,0.90
2019-05-11T11:06:28.294Z,0.80
2019-05-11T11:08:57.873Z,0.90
2019-05-11T11:11:27.817Z,1.00
2019-05-11T11:13:58.505Z,1.02
2019-05-11T11:16:36.961Z,1.00
2019-05-11T11:18:58.803Z,1.02
2019-05-11T11:21:28.046Z,1.10
2019-05-11T11:23:58.535Z,0.70
2019-05-11T11:26:28.443Z,0.90
2019-05-11T11:28:58.048Z,1.27
2019-05-11T11:31:28.736Z,1.40
2019-05-11T11:33:58.494Z,1.90
2019-05-11T11:36:28.370Z,1.17
2019-05-11T11:38:58.353Z,1.30
2019-05-11T11:41:26.911Z,0.88
2019-05-11T11:43:55.288Z,1.32
2019-05-11T11:46:23.682Z,0.90
2019-05-11T11:48:52.334Z,0.72
2019-05-11T11:51:40.072Z,0.53
2019-05-11T11:54:08.874Z,0.90
2019-05-11T11:56:38.019Z,1.00
2019-05-11T11:59:08.574Z,0.90
2019-05-11T12:01:38.452Z,0.82
2019-05-11T12:04:08.229Z,0.60
2019-05-11T12:06:38.549Z,0.65
2019-05-11T12:09:08.967Z,1.00
2019-05-11T12:11:38.055Z,0.72
2019-05-11T12:14:08.522Z,0.90
2019-05-11T12:16:38.816Z,0.68
2019-05-11T12:19:08.426Z,0.65
2019-05-11T12:21:37.941Z,0.80
2019-05-11T12:24:08.195Z,1.05
2019-05-11T12:26:38.908Z,0.57
2019-05-11T12:29:08.156Z,0.60
2019-05-11T12:31:37.946Z,0.57
2019-05-11T12:34:08.568Z,0.68
2019-05-11T12:36:38.649Z,0.60
2019-05-11T12:39:08.618Z,0.60
2019-05-11T12:41:38.783Z,0.75
2019-05-11T12:44:08.240Z,0.60
2019-05-11T12:46:39.350Z,0.50
2019-05-11T12:49:07.978Z,0.80
2019-05-11T12:51:38.273Z,0.60
2019-05-11T12:54:08.268Z,0.95
2019-05-11T12:56:38.327Z,3.70
2019-05-11T12:59:08.223Z,3.55
2019-05-11T13:01:38.214Z,0.90
2019-05-11T13:04:08.938Z,1.47
2019-05-11T13:06:38.510Z,1.30
2019-05-11T13:09:08.421Z,1.10
2019-05-11T13:11:37.978Z,1.10
2019-05-11T13:14:08.040Z,0.82
2019-05-11T13:16:37.905Z,0.93
2019-05-11T13:19:08.418Z,1.12
2019-05-11T13:21:38.243Z,1.35
2019-05-11T13:24:08.372Z,1.25
2019-05-11T13:26:38.063Z,1.10
2019-05-11T13:29:07.745Z,1.25
2019-05-11T13:31:38.327Z,1.27
2019-05-11T13:34:08.355Z,0.95
2019-05-11T13:36:38.130Z,1.25
2019-05-11T13:39:08.894Z,1.05
2019-05-11T13:41:38.287Z,0.80
2019-05-11T13:44:07.964Z,0.70
2019-05-11T13:46:38.887Z,0.70
2019-05-11T13:49:08.589Z,0.40
2019-05-11T13:51:38.841Z,0.60
2019-05-11T13:54:07.876Z,0.50
2019-05-11T13:56:37.903Z,0.47
2019-05-11T13:59:10.795Z,0.50
2019-05-11T14:01:39.349Z,0.40
2019-05-11T14:04:08.593Z,0.40
2019-05-11T14:06:37.902Z,0.45
2019-05-11T14:09:08.390Z,0.40
2019-05-11T14:11:38.367Z,0.40
2019-05-11T14:14:07.758Z,0.50
2019-05-11T14:16:37.852Z,0.35
2019-05-11T14:19:08.655Z,0.40
2019-05-11T14:21:38.459Z,0.55
2019-05-11T14:24:07.801Z,0.50
2019-05-11T14:26:38.647Z,0.60
2019-05-11T14:29:08.477Z,0.60
2019-05-11T14:31:38.682Z,0.40
2019-05-11T14:34:08.882Z,0.50
2019-05-11T14:36:38.821Z,0.70
2019-05-11T14:39:08.402Z,1.40
2019-05-11T14:41:38.095Z,0.80
2019-05-11T14:44:08.841Z,0.60
2019-05-11T14:46:38.429Z,4.05
2019-05-11T14:49:07.971Z,1.20
2019-05-11T14:51:38.834Z,0.70
2019-05-11T14:54:08.122Z,0.68
2019-05-11T14:56:38.090Z,0.60
2019-05-11T14:59:08.870Z,0.45
2019-05-11T15:01:38.192Z,0.50
2019-05-11T15:04:08.969Z,0.30
2019-05-11T15:06:38.629Z,0.50
2019-05-11T15:09:08.461Z,0.40
2019-05-11T15:11:38.879Z,3.35
2019-05-11T15:14:08.145Z,3.45
2019-05-11T15:16:38.416Z,0.65
2019-05-11T15:19:08.014Z,0.55
2019-05-11T15:21:38.471Z,4.58
2019-05-11T15:24:09.013Z,1.20
2019-05-11T15:26:38.078Z,1.25
2019-05-11T15:29:08.150Z,0.60
2019-05-11T15:31:38.147Z,0.70
2019-05-11T15:34:08.500Z,0.40
2019-05-11T15:36:38.658Z,1.12
2019-05-11T15:39:08.163Z,0.62
2019-05-11T15:41:38.613Z,0.90
2019-05-11T15:44:11.495Z,0.40
2019-05-11T15:46:38.767Z,0.30
2019-05-11T15:49:08.877Z,0.55
2019-05-11T15:51:38.338Z,0.50
2019-05-11T15:54:08.027Z,0.60
2019-05-11T15:56:38.521Z,0.50
2019-05-11T15:59:08.626Z,0.68
2019-05-11T16:01:38.264Z,0.40
2019-05-11T16:04:09.103Z,0.40
2019-05-11T16:06:37.329Z,0.50
2019-05-11T16:09:08.254Z,0.72
2019-05-11T16:11:38.827Z,0.65
2019-05-11T16:14:08.769Z,0.47
2019-05-11T16:16:39.002Z,0.50
2019-05-11T16:19:13.824Z,0.80
2019-05-11T16:21:38.467Z,0.80
2019-05-11T16:24:07.985Z,0.90
2019-05-11T16:26:36.733Z,0.72
2019-05-11T16:29:05.107Z,1.10
2019-05-11T16:31:33.497Z,2.30
2019-05-11T16:34:02.767Z,3.42
2019-05-11T16:36:31.703Z,3.08
2019-05-11T16:39:00.178Z,1.30
2019-05-11T16:41:29.179Z,1.32
2019-05-11T16:43:58.524Z,1.40
2019-05-11T16:46:28.343Z,1.70
2019-05-11T16:48:57.911Z,1.98
2019-05-11T16:51:28.431Z,2.40
2019-05-11T16:53:58.667Z,2.17
2019-05-11T16:56:26.993Z,1.45
2019-05-11T16:58:55.385Z,1.60
2019-05-11T17:01:23.790Z,1.30
2019-05-11T17:03:52.181Z,1.07
2019-05-11T17:06:20.557Z,1.00
2019-05-11T17:08:48.954Z,0.80
2019-05-11T17:11:18.613Z,0.60
2019-05-11T17:13:48.327Z,0.50
2019-05-11T17:16:17.933Z,0.28
2019-05-11T17:18:48.313Z,0.20
2019-05-11T17:21:18.365Z,0.30
2019-05-11T17:23:48.870Z,0.20
2019-05-11T17:26:18.982Z,0.30
2019-05-11T17:28:48.995Z,0.30
2019-05-11T17:31:18.810Z,0.30
2019-05-11T17:33:47.909Z,0.40
2019-05-11T17:36:18.526Z,0.23
2019-05-11T17:38:47.843Z,0.40
2019-05-11T17:41:16.534Z,0.20
2019-05-11T17:43:44.941Z,0.53
2019-05-11T17:46:13.312Z,0.47
2019-05-11T17:48:41.705Z,0.30
2019-05-11T17:51:21.241Z,0.30
2019-05-11T17:53:40.957Z,0.50
2019-05-11T17:56:09.345Z,0.30
2019-05-11T17:58:38.042Z,0.40
2019-05-11T18:01:09.205Z,0.55
2019-05-11T18:03:38.463Z,0.30
2019-05-11T18:06:08.535Z,0.40
2019-05-11T18:08:37.077Z,0.55
2019-05-11T18:11:08.205Z,0.33
2019-05-11T18:13:35.877Z,1.30
2019-05-11T18:16:04.266Z,1.10
2019-05-11T18:18:32.656Z,0.42
2019-05-11T18:21:01.324Z,0.60
2019-05-11T18:23:30.014Z,0.50
2019-05-11T18:25:58.389Z,0.50
2019-05-11T18:28:29.006Z,0.40
2019-05-11T18:30:58.203Z,0.40
2019-05-11T18:33:27.736Z,0.50
2019-05-11T18:35:58.337Z,0.37
2019-05-11T18:38:27.659Z,0.30
2019-05-11T18:40:57.997Z,0.33
2019-05-11T18:43:28.055Z,0.20
2019-05-11T18:45:58.049Z,0.33
2019-05-11T18:48:29.124Z,0.30
2019-05-11T18:50:58.927Z,0.40
2019-05-11T18:53:28.841Z,0.40
2019-05-11T18:55:59.037Z,0.40
2019-05-11T18:58:27.845Z,0.40
2019-05-11T19:00:56.318Z,0.40
2019-05-11T19:03:24.697Z,0.45
2019-05-11T19:05:53.346Z,0.50
2019-05-11T19:08:21.734Z,0.40
2019-05-11T19:10:50.123Z,0.20
2019-05-11T19:13:18.505Z,0.40
2019-05-11T19:15:48.696Z,0.30
2019-05-11T19:18:17.622Z,0.23
2019-05-11T19:20:49.309Z,0.30
2019-05-11T19:23:19.021Z,0.40
2019-05-11T19:25:47.994Z,0.30
2019-05-11T19:28:18.692Z,0.50
2019-05-11T19:30:48.768Z,0.50
2019-05-11T19:33:19.050Z,0.40
2019-05-11T19:35:48.089Z,0.30
2019-05-11T19:38:18.744Z,0.47
2019-05-11T19:40:48.438Z,0.42
2019-05-11T19:43:18.531Z,0.62
2019-05-11T19:45:48.664Z,0.50
2019-05-11T19:48:17.209Z,0.60
2019-05-11T19:50:59.936Z,0.70
2019-05-11T19:53:15.960Z,0.70
2019-05-11T19:55:44.345Z,0.70
2019-05-11T19:58:12.797Z,0.80
2019-05-11T20:00:41.191Z,0.68
2019-05-11T20:03:10.550Z,0.60
2019-05-11T20:05:39.011Z,0.70
2019-05-11T20:08:07.926Z,0.70
2019-05-11T20:10:38.362Z,0.60
2019-05-11T20:13:07.997Z,0.50
2019-05-11T20:15:38.126Z,0.50
2019-05-11T20:18:07.982Z,0.40
2019-05-11T20:20:37.621Z,0.35
2019-05-11T20:23:07.808Z,0.40
2019-05-11T20:25:38.020Z,0.37
2019-05-11T20:28:07.559Z,0.20
2019-05-11T20:30:35.956Z,0.40
2019-05-11T20:33:04.331Z,0.40
2019-05-11T20:35:32.756Z,0.30
2019-05-11T20:38:01.114Z,0.55
2019-05-11T20:40:29.540Z,0.40
2019-05-11T20:42:58.754Z,0.40
2019-05-11T20:45:28.537Z,0.30
2019-05-11T20:47:57.151Z,0.30
2019-05-11T20:50:25.537Z,0.42
2019-05-11T20:52:53.914Z,0.50
2019-05-11T20:55:22.313Z,0.50
2019-05-11T20:57:50.692Z,0.40
2019-05-11T21:00:19.437Z,0.50
2019-05-11T21:02:49.106Z,0.40
2019-05-11T21:05:18.306Z,0.40
2019-05-11T21:07:47.002Z,0.40
2019-05-11T21:10:15.535Z,0.30
2019-05-11T21:12:43.916Z,0.20
2019-05-11T21:15:12.705Z,0.30
2019-05-11T21:17:41.090Z,0.20
2019-05-11T21:20:10.721Z,0.30
2019-05-11T21:22:40.621Z,0.30
2019-05-11T21:25:10.509Z,0.30
2019-05-11T21:27:39.417Z,0.30
2019-05-11T21:30:09.990Z,0.60
2019-05-11T21:32:39.297Z,0.40
2019-05-11T21:35:08.793Z,0.60
2019-05-11T21:37:38.834Z,0.50
2019-05-11T21:40:09.033Z,0.40
2019-05-11T21:42:39.098Z,0.40
2019-05-11T21:45:09.676Z,0.47
2019-05-11T21:47:38.967Z,0.47
2019-05-11T21:50:08.671Z,0.40
2019-05-11T21:52:38.386Z,0.50
2019-05-11T21:55:09.679Z,0.40
2019-05-11T21:57:38.362Z,0.50
2019-05-11T22:00:09.247Z,0.30
2019-05-11T22:02:38.731Z,0.40
2019-05-11T22:05:09.221Z,0.20
2019-05-11T22:07:38.822Z,0.30
2019-05-11T22:10:09.318Z,0.30
2019-05-11T22:12:38.690Z,0.20
2019-05-11T22:15:09.408Z,0.20
2019-05-11T22:17:39.229Z,0.30
2019-05-11T22:20:09.308Z,0.10
2019-05-11T22:22:38.980Z,0.20
2019-05-11T22:25:09.118Z,0.20
2019-05-11T22:27:38.699Z,0.20
2019-05-11T22:30:08.591Z,0.10
2019-05-11T22:32:38.420Z,0.20
2019-05-11T22:35:08.296Z,0.20
2019-05-11T22:37:38.550Z,0.20
2019-05-11T22:40:08.452Z,0.10
2019-05-11T22:42:37.086Z,0.10
2019-05-11T22:45:08.627Z,0.10
2019-05-11T22:47:39.405Z,0.15
2019-05-11T22:50:08.369Z,0.10
2019-05-11T22:52:39.812Z,0.17
2019-05-11T22:55:11.639Z,0.20
2019-05-11T22:57:38.595Z,0.17
2019-05-11T23:00:11.073Z,0.10
2019-05-11T23:02:39.787Z,0.10
2019-05-11T23:05:09.147Z,0.00
2019-05-11T23:07:41.637Z,0.10
2019-05-11T23:10:10.178Z,0.00
2019-05-11T23:12:38.889Z,0.40
2019-05-11T23:15:10.102Z,0.20
2019-05-11T23:17:38.944Z,1.05
2019-05-11T23:20:07.973Z,0.80
2019-05-11T23:22:53.453Z,1.15
2019-05-11T23:25:08.358Z,1.40
2019-05-11T23:27:39.126Z,1.25
2019-05-11T23:30:08.823Z,2.80
2019-05-11T23:32:37.756Z,2.35
2019-05-11T23:35:09.124Z,3.55
2019-05-11T23:37:38.632Z,4.00
2019-05-11T23:40:09.590Z,4.70
2019-05-11T23:42:38.241Z,5.85
2019-05-11T23:45:08.497Z,4.53
2019-05-11T23:47:39.276Z,4.50
2019-05-11T23:50:08.481Z,4.58
2019-05-11T23:52:38.040Z,5.87
2019-05-11T23:55:08.342Z,8.23
2019-05-11T23:57:37.850Z,6.83
